Time;durP1;ratioP1;P1;durP2;ratioP2;P2;SDS_P1;SDS_P2;PMS_P1;PMS_P2;Temp;Humidity;BMP_temperature;BMP_pressure;BME280_temperature;BME280_humidity;BME280_pressure;Samples;Min_cycle;Max_cycle;Signal;HPM_P1;HPM_P2
2022/08/20 00:01:02;;;;;;;7.40;5.93;;;;;;;;;;5062775;28;20040;-57
2022/08/20 00:03:34;;;;;;;8.57;5.75;;;;;;;;;;5071019;28;20096;-57
2022/08/20 00:06:06;;;;;;;8.00;5.40;;;;;;;;;;5052454;28;20024;-58
2022/08/20 00:08:32;;;;;;;7.20;5.60;;;;;;;;;;5059801;28;20043;-57
2022/08/20 00:10:58;;;;;;;6.80;5.45;;;;;;;;;;5059948;28;20478;-57
2022/08/20 00:13:37;;;;;;;9.18;6.05;;;;;;;;;;5050638;28;20029;-57
2022/08/20 00:16:03;;;;;;;8.90;5.35;;;;;;;;;;5057311;28;20377;-57
2022/08/20 00:18:28;;;;;;;7.57;5.43;;;;;;;;;;5069129;28;20077;-57
2022/08/20 00:20:55;;;;;;;7.25;5.53;;;;;;;;;;5058986;28;20096;-57
2022/08/20 00:23:22;;;;;;;8.60;5.20;;;;;;;;;;5067456;28;20035;-57
2022/08/20 00:25:48;;;;;;;8.63;5.30;;;;;;;;;;5067372;28;20068;-57
2022/08/20 00:28:14;;;;;;;7.72;5.15;;;;;;;;;;5059367;28;20028;-57
2022/08/20 00:30:41;;;;;;;8.38;4.93;;;;;;;;;;5071503;28;20399;-57
2022/08/20 00:33:13;;;;;;;6.97;5.28;;;;;;;;;;5070764;28;20413;-57
2022/08/20 00:35:42;;;;;;;6.35;5.32;;;;;;;;;;5062128;28;20442;-57
2022/08/20 00:38:07;;;;;;;6.82;5.40;;;;;;;;;;5051345;28;20135;-57
2022/08/20 00:40:37;;;;;;;8.18;5.05;;;;;;;;;;5063958;28;20537;-56
2022/08/20 00:43:06;;;;;;;7.85;4.95;;;;;;;;;;5054114;28;20047;-57
2022/08/20 00:45:34;;;;;;;6.13;4.55;;;;;;;;;;5056257;28;20025;-56
2022/08/20 00:48:00;;;;;;;5.63;4.53;;;;;;;;;;5062239;28;20032;-56
2022/08/20 00:50:32;;;;;;;7.70;5.07;;;;;;;;;;5064207;28;20074;-57
2022/08/20 00:52:59;;;;;;;7.35;4.57;;;;;;;;;;5068917;28;20478;-57
2022/08/20 00:55:25;;;;;;;6.68;4.97;;;;;;;;;;5051241;28;20567;-56
2022/08/20 00:57:54;;;;;;;7.97;4.70;;;;;;;;;;5059824;28;20056;-56
2022/08/20 01:00:22;;;;;;;;;;;;;;;;;;5070380;28;20134;-56
2022/08/20 01:02:49;;;;;;;7.30;4.25;;;;;;;;;;5052695;28;19963;-56
2022/08/20 01:05:15;;;;;;;5.80;4.10;;;;;;;;;;5056324;28;20020;-56
2022/08/20 01:07:42;;;;;;;5.80;4.15;;;;;;;;;;5066995;28;20032;-56
2022/08/20 01:10:10;;;;;;;7.47;4.68;;;;;;;;;;5071027;28;20099;-57
2022/08/20 01:12:36;;;;;;;6.32;3.97;;;;;;;;;;5070298;28;20036;-56
2022/08/20 01:15:04;;;;;;;9.13;4.05;;;;;;;;;;5065821;28;20086;-57
2022/08/20 01:17:33;;;;;;;7.05;4.00;;;;;;;;;;5051039;28;20119;-56
2022/08/20 01:20:16;;;;;;;7.15;4.45;;;;;;;;;;5064397;28;20020;-56
2022/08/20 01:25:55;;;;;;;5.55;4.15;;;;;;;;;;5051026;28;20028;-57
2022/08/20 01:28:25;;;;;;;5.53;3.80;;;;;;;;;;5050491;28;20067;-57
2022/08/20 01:30:51;;;;;;;4.75;3.72;;;;;;;;;;5051013;28;20029;-57
2022/08/20 01:33:18;;;;;;;5.95;3.85;;;;;;;;;;5059396;28;20513;-56
2022/08/20 01:35:44;;;;;;;6.95;4.00;;;;;;;;;;5070772;28;20024;-57
2022/08/20 01:38:11;;;;;;;9.35;4.35;;;;;;;;;;5054363;28;20107;-57
2022/08/20 01:41:13;;;;;;;7.22;4.20;;;;;;;;;;5065753;28;20033;-56
2022/08/20 01:43:40;;;;;;;4.43;3.30;;;;;;;;;;5063610;28;20543;-56
2022/08/20 01:46:08;;;;;;;4.45;3.60;;;;;;;;;;5055126;28;20048;-56
2022/08/20 01:48:35;;;;;;;9.20;3.90;;;;;;;;;;5074322;28;20025;-56
2022/08/20 01:51:25;;;;;;;8.25;3.72;;;;;;;;;;5065099;28;20115;-57
2022/08/20 01:53:53;;;;;;;4.25;3.72;;;;;;;;;;5056777;28;20036;-57
2022/08/20 01:56:22;;;;;;;6.28;4.00;;;;;;;;;;5059247;28;20044;-56
2022/08/20 01:58:52;;;;;;;5.07;3.70;;;;;;;;;;5064510;28;20060;-56
2022/08/20 02:01:25;;;;;;;6.13;3.70;;;;;;;;;;5053691;28;20083;-57
2022/08/20 02:03:50;;;;;;;5.75;3.95;;;;;;;;;;5072437;28;20436;-57
2022/08/20 02:06:17;;;;;;;4.65;3.58;;;;;;;;;;5066955;28;20017;-57
2022/08/20 02:08:42;;;;;;;6.90;3.75;;;;;;;;;;5053959;28;20044;-57
2022/08/20 02:11:09;;;;;;;6.57;3.80;;;;;;;;;;5066194;28;20063;-56
2022/08/20 02:13:34;;;;;;;4.70;3.70;;;;;;;;;;5071686;28;20494;-56
2022/08/20 02:15:59;;;;;;;5.72;3.47;;;;;;;;;;5058946;28;20059;-57
2022/08/20 02:18:25;;;;;;;3.95;3.55;;;;;;;;;;5073856;28;20024;-56
2022/08/20 02:20:51;;;;;;;4.63;3.90;;;;;;;;;;5061283;28;20021;-57
2022/08/20 02:23:17;;;;;;;5.75;3.78;;;;;;;;;;5069202;28;20524;-57
2022/08/20 02:25:46;;;;;;;4.18;3.70;;;;;;;;;;5072514;28;20553;-56
2022/08/20 02:28:18;;;;;;;4.90;3.60;;;;;;;;;;5073477;28;20028;-57
2022/08/20 02:30:49;;;;;;;5.07;3.80;;;;;;;;;;5073955;28;20286;-57
2022/08/20 02:33:18;;;;;;;8.48;4.15;;;;;;;;;;5071702;28;20016;-57
2022/08/20 02:35:47;;;;;;;4.15;3.40;;;;;;;;;;5053456;28;20021;-57
2022/08/20 02:38:14;;;;;;;6.03;4.03;;;;;;;;;;5063202;28;20502;-57
2022/08/20 02:40:43;;;;;;;4.60;3.50;;;;;;;;;;5073598;28;20409;-57
2022/08/20 02:43:09;;;;;;;5.43;3.95;;;;;;;;;;5055689;28;20032;-57
2022/08/20 02:45:36;;;;;;;4.63;3.95;;;;;;;;;;5073465;28;20028;-57
2022/08/20 02:48:01;;;;;;;4.93;4.03;;;;;;;;;;5073237;28;20035;-57
2022/08/20 02:50:27;;;;;;;5.22;3.92;;;;;;;;;;5059899;28;20028;-57
2022/08/20 02:52:53;;;;;;;4.47;3.63;;;;;;;;;;5069513;28;20032;-57
2022/08/20 02:55:19;;;;;;;4.95;3.80;;;;;;;;;;5073246;28;20036;-56
2022/08/20 02:57:45;;;;;;;5.93;4.10;;;;;;;;;;5070548;28;20020;-57
2022/08/20 03:00:14;;;;;;;6.10;3.63;;;;;;;;;;5073156;28;20498;-56
2022/08/20 03:02:40;;;;;;;5.10;3.50;;;;;;;;;;5072175;28;20060;-57
2022/08/20 03:05:06;;;;;;;6.20;4.03;;;;;;;;;;5065629;28;20105;-57
2022/08/20 03:07:38;;;;;;;7.43;4.18;;;;;;;;;;5064948;28;20052;-57
2022/08/20 03:10:04;;;;;;;5.40;4.20;;;;;;;;;;5064680;28;20401;-57
2022/08/20 03:12:29;;;;;;;5.75;4.07;;;;;;;;;;5055888;28;20032;-57
2022/08/20 03:14:55;;;;;;;6.07;3.85;;;;;;;;;;5068059;28;20024;-57
2022/08/20 03:17:20;;;;;;;7.28;4.10;;;;;;;;;;5052686;28;20040;-57
2022/08/20 03:19:46;;;;;;;6.82;4.05;;;;;;;;;;5064586;28;20535;-57
2022/08/20 03:22:11;;;;;;;5.10;3.65;;;;;;;;;;5072785;28;20035;-57
2022/08/20 03:24:36;;;;;;;4.82;3.60;;;;;;;;;;5056476;28;20032;-57
2022/08/20 03:27:02;;;;;;;6.32;4.40;;;;;;;;;;5065588;28;20063;-56
2022/08/20 03:29:27;;;;;;;8.80;4.22;;;;;;;;;;5063322;28;20016;-56
2022/08/20 03:31:53;;;;;;;7.72;4.43;;;;;;;;;;5071582;28;20543;-57
2022/08/20 03:34:18;;;;;;;6.80;4.40;;;;;;;;;;5055934;28;20021;-56
2022/08/20 03:36:44;;;;;;;6.60;4.32;;;;;;;;;;5072291;28;20020;-56
2022/08/20 03:39:12;;;;;;;7.90;4.32;;;;;;;;;;5072293;28;20500;-57
2022/08/20 03:41:38;;;;;;;5.60;4.07;;;;;;;;;;5058000;28;20044;-56
2022/08/20 03:44:05;;;;;;;10.35;4.68;;;;;;;;;;5060614;28;20392;-57
2022/08/20 03:46:31;;;;;;;6.15;4.53;;;;;;;;;;5052168;28;20452;-56
2022/08/20 03:48:56;;;;;;;5.63;4.45;;;;;;;;;;5052103;28;20021;-56
2022/08/20 03:51:22;;;;;;;6.93;4.53;;;;;;;;;;5051496;28;20496;-57
2022/08/20 03:53:47;;;;;;;7.03;4.80;;;;;;;;;;5068681;28;20020;-57
2022/08/20 03:56:12;;;;;;;6.22;4.60;;;;;;;;;;5067940;28;20028;-56
2022/08/20 03:58:38;;;;;;;10.40;4.97;;;;;;;;;;5059580;28;20082;-57
2022/08/20 04:01:05;;;;;;;6.75;4.60;;;;;;;;;;5072015;28;20028;-56
2022/08/20 04:03:31;;;;;;;8.35;4.78;;;;;;;;;;5071087;28;20028;-57
2022/08/20 04:05:57;;;;;;;7.20;5.32;;;;;;;;;;5052228;28;20043;-57
2022/08/20 04:08:26;;;;;;;8.18;4.75;;;;;;;;;;5059026;28;20508;-56
2022/08/20 04:10:53;;;;;;;8.23;4.80;;;;;;;;;;5060044;28;20128;-56
2022/08/20 04:13:22;;;;;;;6.70;4.97;;;;;;;;;;5066052;28;20039;-57
2022/08/20 04:15:48;;;;;;;;;;;;;;;;;;5068607;28;20505;-57
2022/08/20 04:18:19;;;;;;;7.20;4.85;;;;;;;;;;5059167;28;19909;-57
2022/08/20 04:20:46;;;;;;;8.52;5.50;;;;;;;;;;5060059;28;20470;-56
2022/08/20 04:23:13;;;;;;;7.35;5.07;;;;;;;;;;5050745;28;20029;-57
2022/08/20 04:25:40;;;;;;;7.43;5.40;;;;;;;;;;5071518;28;20024;-56
2022/08/20 04:28:09;;;;;;;9.55;5.10;;;;;;;;;;5070882;28;20498;-57
2022/08/20 04:30:34;;;;;;;5.82;4.95;;;;;;;;;;5059690;28;20091;-56
2022/08/20 04:33:00;;;;;;;7.28;5.03;;;;;;;;;;5050530;28;20033;-57
2022/08/20 04:35:26;;;;;;;7.25;4.90;;;;;;;;;;5054824;28;20112;-56
2022/08/20 04:38:12;;;;;;;7.05;5.10;;;;;;;;;;5064225;28;20031;-58
2022/08/20 04:40:53;;;;;;;8.27;5.20;;;;;;;;;;5051396;28;20028;-57
2022/08/20 04:43:24;;;;;;;7.40;5.38;;;;;;;;;;5069808;28;20050;-57
2022/08/20 04:45:51;;;;;;;7.78;5.28;;;;;;;;;;5071306;28;20020;-56
2022/08/20 04:48:17;;;;;;;7.85;5.20;;;;;;;;;;5059157;28;20025;-57
2022/08/20 04:50:45;;;;;;;8.73;5.50;;;;;;;;;;5066682;28;20609;-57
2022/08/20 04:53:12;;;;;;;9.73;5.85;;;;;;;;;;5054166;28;20046;-57
2022/08/20 04:55:41;;;;;;;6.90;5.28;;;;;;;;;;5071280;28;20025;-56
2022/08/20 04:58:34;;;;;;;7.70;5.43;;;;;;;;;;5070792;28;20036;-57
2022/08/20 05:01:02;;;;;;;8.93;5.55;;;;;;;;;;5052466;28;20151;-57
2022/08/20 05:03:28;;;;;;;8.93;5.63;;;;;;;;;;5057781;28;20025;-57
2022/08/20 05:05:55;;;;;;;7.72;5.15;;;;;;;;;;5060061;28;20041;-56
2022/08/20 05:08:24;;;;;;;7.75;5.47;;;;;;;;;;5051055;28;20071;-57
2022/08/20 05:10:50;;;;;;;7.88;5.53;;;;;;;;;;5051220;28;20557;-57
2022/08/20 05:13:16;;;;;;;10.45;5.50;;;;;;;;;;5057576;28;20040;-57
2022/08/20 05:15:44;;;;;;;8.80;5.60;;;;;;;;;;5060173;28;20021;-57
2022/08/20 05:18:10;;;;;;;8.13;5.72;;;;;;;;;;5064328;28;20024;-57
2022/08/20 05:20:40;;;;;;;8.02;5.78;;;;;;;;;;5051825;28;20063;-57
2022/08/20 05:23:08;;;;;;;7.47;5.55;;;;;;;;;;5061175;28;20471;-57
2022/08/20 05:25:34;;;;;;;8.30;5.77;;;;;;;;;;5063534;28;20505;-59
2022/08/20 05:28:08;;;;;;;8.32;6.05;;;;;;;;;;5069547;28;20024;-58
2022/08/20 05:30:35;;;;;;;8.35;5.93;;;;;;;;;;5058384;28;20407;-58
2022/08/20 05:33:03;;;;;;;8.35;5.60;;;;;;;;;;5064633;28;20111;-58
2022/08/20 05:35:29;;;;;;;7.80;5.82;;;;;;;;;;5054784;28;20547;-58
2022/08/20 05:37:56;;;;;;;8.30;5.65;;;;;;;;;;5070622;28;20028;-58
2022/08/20 05:40:22;;;;;;;7.53;5.70;;;;;;;;;;5054880;28;20032;-59
2022/08/20 05:42:48;;;;;;;8.20;5.28;;;;;;;;;;5060755;28;20016;-58
2022/08/20 05:45:15;;;;;;;8.07;5.53;;;;;;;;;;5062906;28;20029;-58
2022/08/20 05:47:42;;;;;;;8.45;6.20;;;;;;;;;;5070006;28;20425;-58
2022/08/20 05:50:09;;;;;;;7.53;5.80;;;;;;;;;;5058395;28;20115;-58
2022/08/20 05:52:34;;;;;;;9.40;5.60;;;;;;;;;;5066431;28;20031;-58
2022/08/20 05:55:00;;;;;;;8.18;5.53;;;;;;;;;;5065136;28;20021;-58
2022/08/20 05:57:26;;;;;;;9.50;6.07;;;;;;;;;;5058354;28;20028;-58
2022/08/20 05:59:52;;;;;;;8.88;5.80;;;;;;;;;;5072156;28;20035;-58
2022/08/20 06:05:02;;;;;;;7.20;5.38;;;;;;;;;;5066576;28;20520;-57
2022/08/20 06:07:27;;;;;;;10.55;5.45;;;;;;;;;;5074226;28;20052;-57
2022/08/20 06:09:52;;;;;;;10.40;7.28;;;;;;;;;;5070302;28;20429;-57
2022/08/20 06:12:18;;;;;;;9.45;6.10;;;;;;;;;;5053151;28;20027;-58
2022/08/20 06:14:46;;;;;;;9.93;6.57;;;;;;;;;;5053568;28;20033;-58
2022/08/20 06:17:17;;;;;;;9.18;5.95;;;;;;;;;;5053945;28;20029;-58
2022/08/20 06:19:45;;;;;;;9.05;6.18;;;;;;;;;;5070078;28;20028;-59
2022/08/20 06:22:12;;;;;;;10.45;6.40;;;;;;;;;;5053090;28;20509;-59
2022/08/20 06:24:37;;;;;;;9.57;6.18;;;;;;;;;;5053713;28;20539;-58
2022/08/20 06:27:04;;;;;;;7.85;5.90;;;;;;;;;;5053615;28;20028;-59
2022/08/20 06:29:32;;;;;;;9.85;6.25;;;;;;;;;;5053407;28;20406;-58
2022/08/20 06:31:58;;;;;;;8.35;6.05;;;;;;;;;;5060155;28;20154;-59
2022/08/20 06:34:27;;;;;;;7.55;5.60;;;;;;;;;;5073678;28;20035;-58
2022/08/20 06:36:56;;;;;;;8.35;5.78;;;;;;;;;;5057948;28;20017;-58
2022/08/20 06:39:22;;;;;;;8.98;6.65;;;;;;;;;;5069562;28;20108;-58
2022/08/20 06:41:48;;;;;;;8.75;6.32;;;;;;;;;;5052733;28;20025;-58
2022/08/20 06:44:13;;;;;;;12.50;7.32;;;;;;;;;;5064322;28;20043;-58
2022/08/20 06:46:39;;;;;;;9.07;6.63;;;;;;;;;;5058297;28;20017;-58
2022/08/20 06:49:06;;;;;;;8.32;5.82;;;;;;;;;;5070379;28;20031;-58
2022/08/20 06:51:32;;;;;;;8.35;6.25;;;;;;;;;;5072683;28;20032;-58
2022/08/20 06:53:57;;;;;;;11.10;7.32;;;;;;;;;;5072673;28;20086;-58
2022/08/20 06:56:22;;;;;;;8.75;6.10;;;;;;;;;;5073142;28;20104;-58
2022/08/20 06:58:48;;;;;;;11.00;6.45;;;;;;;;;;5056281;28;20027;-58
2022/08/20 07:01:14;;;;;;;8.65;6.05;;;;;;;;;;5067347;28;20108;-58
2022/08/20 07:03:41;;;;;;;8.30;6.60;;;;;;;;;;5061784;28;20485;-58
2022/08/20 07:06:07;;;;;;;8.70;6.38;;;;;;;;;;5059621;28;20500;-58
2022/08/20 07:08:34;;;;;;;8.45;5.80;;;;;;;;;;5052790;28;20081;-58
2022/08/20 07:11:00;;;;;;;8.63;6.00;;;;;;;;;;5057568;28;20028;-58
2022/08/20 07:13:27;;;;;;;8.10;6.40;;;;;;;;;;5062806;28;20100;-58
2022/08/20 07:15:53;;;;;;;10.07;6.07;;;;;;;;;;5051668;28;20025;-58
2022/08/20 07:18:18;;;;;;;8.98;6.05;;;;;;;;;;5069054;28;20027;-58
2022/08/20 07:20:44;;;;;;;9.50;5.88;;;;;;;;;;5056898;28;20536;-58
2022/08/20 07:23:10;;;;;;;7.93;6.00;;;;;;;;;;5071802;28;20021;-58
2022/08/20 07:25:37;;;;;;;8.35;5.78;;;;;;;;;;5060967;28;20025;-58
2022/08/20 07:28:07;;;;;;;10.25;6.80;;;;;;;;;;5068043;28;20067;-58
2022/08/20 07:33:18;;;;;;;9.65;6.65;;;;;;;;;;5072006;28;20122;-58
2022/08/20 07:35:47;;;;;;;7.78;6.15;;;;;;;;;;5072419;28;20020;-58
2022/08/20 07:38:23;;;;;;;8.75;6.15;;;;;;;;;;5072398;28;20103;-58
2022/08/20 07:41:03;;;;;;;10.00;6.88;;;;;;;;;;5072416;28;20028;-58
2022/08/20 07:43:29;;;;;;;9.95;6.30;;;;;;;;;;5070525;28;20470;-58
2022/08/20 07:45:59;;;;;;;11.07;6.95;;;;;;;;;;5058727;28;20017;-58
2022/08/20 07:48:27;;;;;;;9.43;6.63;;;;;;;;;;5072131;28;20051;-58
2022/08/20 07:50:54;;;;;;;10.38;6.53;;;;;;;;;;5062711;28;20048;-58
2022/08/20 07:53:20;;;;;;;11.23;6.20;;;;;;;;;;5051245;28;20025;-58
2022/08/20 07:55:45;;;;;;;9.55;6.70;;;;;;;;;;5069378;28;20375;-58
2022/08/20 07:58:13;;;;;;;9.02;6.13;;;;;;;;;;5066645;28;20099;-58
2022/08/20 08:00:39;;;;;;;8.65;6.18;;;;;;;;;;5051874;28;20029;-58
2022/08/20 08:03:05;;;;;;;10.00;6.53;;;;;;;;;;5051165;28;20017;-59
2022/08/20 08:05:33;;;;;;;9.32;6.60;;;;;;;;;;5051836;28;20426;-58
2022/08/20 08:07:59;;;;;;;8.35;6.22;;;;;;;;;;5056365;28;20031;-58
2022/08/20 08:10:25;;;;;;;8.52;6.05;;;;;;;;;;5071916;28;20028;-59
2022/08/20 08:12:57;;;;;;;10.40;6.90;;;;;;;;;;5070551;28;20431;-58
2022/08/20 08:15:27;;;;;;;9.10;5.80;;;;;;;;;;5071795;28;20025;-58
2022/08/20 08:17:57;;;;;;;7.95;5.72;;;;;;;;;;5071857;28;20104;-57
2022/08/20 08:20:23;;;;;;;8.55;5.78;;;;;;;;;;5062264;28;20035;-57
2022/08/20 08:22:50;;;;;;;8.18;5.63;;;;;;;;;;5062832;28;20029;-58
2022/08/20 08:25:15;;;;;;;11.32;6.10;;;;;;;;;;5070594;28;20100;-58
2022/08/20 08:27:42;;;;;;;8.25;5.55;;;;;;;;;;5055077;28;20147;-58
2022/08/20 08:30:08;;;;;;;8.40;6.00;;;;;;;;;;5062627;28;20021;-57
2022/08/20 08:32:36;;;;;;;8.77;5.95;;;;;;;;;;5063599;28;20103;-58
2022/08/20 08:35:07;;;;;;;7.75;5.47;;;;;;;;;;5054842;28;20453;-57
2022/08/20 08:37:33;;;;;;;6.95;4.53;;;;;;;;;;5068435;28;20072;-58
2022/08/20 08:40:00;;;;;;;6.78;4.97;;;;;;;;;;5062302;28;20128;-58
2022/08/20 08:42:34;;;;;;;7.60;5.07;;;;;;;;;;5063267;28;20525;-58
2022/08/20 08:45:03;;;;;;;7.07;5.07;;;;;;;;;;5070824;28;20039;-58
2022/08/20 08:47:34;;;;;;;8.18;5.25;;;;;;;;;;5065543;28;20390;-58
2022/08/20 08:50:01;;;;;;;7.60;5.45;;;;;;;;;;5061685;28;20033;-58
2022/08/20 08:52:30;;;;;;;8.30;5.30;;;;;;;;;;5056019;28;20025;-58
2022/08/20 08:55:00;;;;;;;7.18;5.07;;;;;;;;;;5053642;28;20025;-58
2022/08/20 08:57:27;;;;;;;7.68;5.60;;;;;;;;;;5067615;28;20311;-58
2022/08/20 09:00:00;;;;;;;5.25;4.35;;;;;;;;;;5065379;28;20067;-58
2022/08/20 09:02:29;;;;;;;6.22;4.70;;;;;;;;;;5058853;28;20028;-58
2022/08/20 09:04:58;;;;;;;6.00;4.88;;;;;;;;;;5075058;28;20029;-58
2022/08/20 09:07:25;;;;;;;;;;;;;;;;;;5075619;28;20417;-58
2022/08/20 09:09:51;;;;;;;5.28;4.18;;;;;;;;;;5063155;28;19962;-58
2022/08/20 09:12:20;;;;;;;6.40;4.63;;;;;;;;;;5070254;28;20043;-58
2022/08/20 09:14:48;;;;;;;6.07;4.63;;;;;;;;;;5074865;28;20031;-58
2022/08/20 09:17:20;;;;;;;6.05;5.00;;;;;;;;;;5075165;28;20032;-58
2022/08/20 09:19:45;;;;;;;5.43;4.80;;;;;;;;;;5062170;28;20021;-58
2022/08/20 09:22:14;;;;;;;6.60;4.93;;;;;;;;;;5070584;28;20447;-58
2022/08/20 09:24:41;;;;;;;7.68;4.80;;;;;;;;;;5074882;28;20025;-58
2022/08/20 09:27:07;;;;;;;7.88;4.95;;;;;;;;;;5066397;28;20063;-58
2022/08/20 09:29:32;;;;;;;7.30;5.10;;;;;;;;;;5082199;28;20432;-58
2022/08/20 09:32:03;;;;;;;6.85;4.85;;;;;;;;;;5074028;28;20052;-58
2022/08/20 09:34:29;;;;;;;7.85;5.30;;;;;;;;;;5074554;28;20028;-58
2022/08/20 09:36:55;;;;;;;7.20;5.05;;;;;;;;;;5066793;28;20040;-58
2022/08/20 09:39:20;;;;;;;6.60;5.38;;;;;;;;;;5066619;28;20393;-58
2022/08/20 09:41:45;;;;;;;6.80;5.03;;;;;;;;;;5058049;28;20512;-58
2022/08/20 09:44:11;;;;;;;5.97;5.03;;;;;;;;;;5070281;28;20032;-58
2022/08/20 09:46:36;;;;;;;7.68;5.55;;;;;;;;;;5054480;28;20415;-59
2022/08/20 09:49:02;;;;;;;5.18;4.68;;;;;;;;;;5054355;28;20036;-58
2022/08/20 09:51:27;;;;;;;5.70;4.85;;;;;;;;;;5068273;28;20027;-58
2022/08/20 09:53:53;;;;;;;7.60;5.38;;;;;;;;;;5055910;28;20048;-58
2022/08/20 09:56:19;;;;;;;7.50;5.25;;;;;;;;;;5054432;28;20024;-58
2022/08/20 09:58:53;;;;;;;6.90;5.40;;;;;;;;;;5063607;28;20028;-57
2022/08/20 10:01:20;;;;;;;9.20;5.50;;;;;;;;;;5073610;28;20032;-56
2022/08/20 10:03:47;;;;;;;6.07;5.22;;;;;;;;;;5055288;28;20028;-57
2022/08/20 10:06:15;;;;;;;8.35;5.30;;;;;;;;;;5060530;28;20020;-57
2022/08/20 10:08:41;;;;;;;6.75;5.10;;;;;;;;;;5073571;28;20107;-58
2022/08/20 10:11:06;;;;;;;5.32;4.82;;;;;;;;;;5074222;28;20104;-57
2022/08/20 10:13:31;;;;;;;6.43;4.90;;;;;;;;;;5070955;28;20028;-57
2022/08/20 10:15:57;;;;;;;5.90;4.90;;;;;;;;;;5057397;28;20017;-57
2022/08/20 10:18:22;;;;;;;6.03;4.70;;;;;;;;;;5064456;28;20025;-58
2022/08/20 10:20:47;;;;;;;8.38;5.05;;;;;;;;;;5054186;28;20020;-57
2022/08/20 10:23:13;;;;;;;7.60;4.88;;;;;;;;;;5069232;28;20025;-57
2022/08/20 10:25:40;;;;;;;5.20;4.70;;;;;;;;;;5057024;28;20413;-57
2022/08/20 10:28:05;;;;;;;5.53;4.80;;;;;;;;;;5073433;28;20348;-58
2022/08/20 10:30:31;;;;;;;7.13;4.95;;;;;;;;;;5061321;28;20398;-58
2022/08/20 10:32:57;;;;;;;6.38;4.68;;;;;;;;;;5052756;28;20522;-58
2022/08/20 10:35:22;;;;;;;8.63;5.55;;;;;;;;;;5073658;28;20100;-58
2022/08/20 10:37:48;;;;;;;5.40;4.90;;;;;;;;;;5066046;28;20532;-58
2022/08/20 10:40:14;;;;;;;6.07;5.10;;;;;;;;;;5065156;28;20104;-57
2022/08/20 10:42:42;;;;;;;7.55;5.82;;;;;;;;;;5057640;28;20052;-58
2022/08/20 10:45:12;;;;;;;6.10;4.50;;;;;;;;;;5068959;28;20482;-59
2022/08/20 10:47:37;;;;;;;4.63;4.07;;;;;;;;;;5053526;28;20099;-59
2022/08/20 10:50:07;;;;;;;4.18;2.90;;;;;;;;;;5053430;28;20049;-59
2022/08/20 10:52:32;;;;;;;4.13;2.58;;;;;;;;;;5052708;28;20029;-58
2022/08/20 10:54:57;;;;;;;7.45;3.53;;;;;;;;;;5056194;28;20078;-59
2022/08/20 10:57:28;;;;;;;16.63;4.55;;;;;;;;;;5066553;28;20391;-58
2022/08/20 10:59:55;;;;;;;14.05;4.30;;;;;;;;;;5052447;28;20124;-57
2022/08/20 11:02:22;;;;;;;10.00;4.22;;;;;;;;;;5052439;28;20067;-58
2022/08/20 11:04:48;;;;;;;5.93;3.53;;;;;;;;;;5069484;28;20025;-58
2022/08/20 11:07:26;;;;;;;4.15;3.75;;;;;;;;;;5058274;28;20047;-59
2022/08/20 11:09:52;;;;;;;5.57;3.53;;;;;;;;;;5065463;28;20017;-59
2022/08/20 11:12:19;;;;;;;7.40;3.72;;;;;;;;;;5055780;28;20239;-59
2022/08/20 11:14:44;;;;;;;6.32;3.45;;;;;;;;;;5056456;28;20111;-60
2022/08/20 11:17:10;;;;;;;7.63;3.47;;;;;;;;;;5073068;28;20063;-59
2022/08/20 11:19:43;;;;;;;4.88;3.53;;;;;;;;;;5060346;28;20027;-60
2022/08/20 11:22:10;;;;;;;4.50;2.70;;;;;;;;;;5068065;28;20527;-60
2022/08/20 11:24:36;;;;;;;6.93;2.60;;;;;;;;;;5055503;28;20043;-59
2022/08/20 11:27:04;;;;;;;3.67;2.70;;;;;;;;;;5072723;28;20150;-59
2022/08/20 11:29:29;;;;;;;3.50;3.03;;;;;;;;;;5072371;28;20029;-60
2022/08/20 11:31:55;;;;;;;6.82;3.78;;;;;;;;;;5055930;28;20033;-59
2022/08/20 11:34:21;;;;;;;10.82;4.10;;;;;;;;;;5072596;28;20105;-59
2022/08/20 11:36:47;;;;;;;9.15;4.63;;;;;;;;;;5065206;28;20013;-58
2022/08/20 11:39:13;;;;;;;5.28;2.63;;;;;;;;;;5052328;28;20036;-58
2022/08/20 11:41:39;;;;;;;7.60;2.47;;;;;;;;;;5066911;28;20028;-58
2022/08/20 11:44:05;;;;;;;6.35;2.78;;;;;;;;;;5060392;28;20107;-58
2022/08/20 11:46:32;;;;;;;6.35;1.85;;;;;;;;;;5052436;28;20033;-58
2022/08/20 11:48:58;;;;;;;4.07;1.80;;;;;;;;;;5052241;28;20032;-58
2022/08/20 11:51:23;;;;;;;3.28;2.13;;;;;;;;;;5065779;28;20024;-57
2022/08/20 11:53:49;;;;;;;3.53;1.98;;;;;;;;;;5071409;28;20456;-57
2022/08/20 11:56:16;;;;;;;2.95;1.90;;;;;;;;;;5069905;28;20481;-58
2022/08/20 11:58:42;;;;;;;3.80;2.00;;;;;;;;;;5064415;28;20025;-58
2022/08/20 12:01:08;;;;;;;2.33;2.13;;;;;;;;;;5051991;28;20044;-58
2022/08/20 12:03:33;;;;;;;2.20;2.00;;;;;;;;;;5067266;28;20039;-58
2022/08/20 12:05:59;;;;;;;3.22;2.30;;;;;;;;;;5056766;28;20028;-58
2022/08/20 12:08:25;;;;;;;3.13;2.20;;;;;;;;;;5071688;28;20429;-58
2022/08/20 12:10:51;;;;;;;6.82;4.32;;;;;;;;;;5059333;28;20084;-57
2022/08/20 12:13:16;;;;;;;3.85;2.72;;;;;;;;;;5066765;28;20160;-57
2022/08/20 12:15:42;;;;;;;4.03;2.70;;;;;;;;;;5067999;28;20025;-58
2022/08/20 12:18:09;;;;;;;2.88;2.40;;;;;;;;;;5059371;28;20066;-58
2022/08/20 12:20:36;;;;;;;3.42;3.05;;;;;;;;;;5060205;28;20517;-58
2022/08/20 12:23:02;;;;;;;3.75;2.47;;;;;;;;;;5050592;28;20060;-58
2022/08/20 12:25:28;;;;;;;3.63;2.90;;;;;;;;;;5054814;28;20071;-58
2022/08/20 12:27:53;;;;;;;4.72;3.40;;;;;;;;;;5071040;28;20055;-58
2022/08/20 12:30:22;;;;;;;3.15;2.63;;;;;;;;;;5060611;28;20394;-58
2022/08/20 12:32:47;;;;;;;3.03;2.50;;;;;;;;;;5065872;28;20442;-57
2022/08/20 12:35:14;;;;;;;5.03;2.88;;;;;;;;;;5052691;28;20052;-58
2022/08/20 12:37:40;;;;;;;4.07;2.70;;;;;;;;;;5057829;28;20035;-57
2022/08/20 12:40:10;;;;;;;3.10;2.35;;;;;;;;;;5061241;28;20056;-58
2022/08/20 12:42:36;;;;;;;3.58;2.80;;;;;;;;;;5050793;28;20470;-57
2022/08/20 12:45:02;;;;;;;3.10;2.80;;;;;;;;;;5068873;28;20056;-57
2022/08/20 12:47:34;;;;;;;4.05;2.60;;;;;;;;;;5071071;28;20028;-57
2022/08/20 12:50:05;;;;;;;3.47;2.80;;;;;;;;;;5071248;28;20024;-57
2022/08/20 12:52:30;;;;;;;4.10;3.67;;;;;;;;;;5070395;28;20024;-57
2022/08/20 12:54:57;;;;;;;5.40;3.63;;;;;;;;;;5055082;28;20432;-57
2022/08/20 12:57:29;;;;;;;2.00;1.80;;;;;;;;;;5064148;28;20029;-57
2022/08/20 13:00:19;;;;;;;1.50;1.40;;;;;;;;;;5062259;28;20386;-57
2022/08/20 13:02:44;;;;;;;1.25;1.15;;;;;;;;;;5070299;28;20055;-57
2022/08/20 13:05:11;;;;;;;1.35;1.25;;;;;;;;;;5062896;28;20477;-56
2022/08/20 13:07:37;;;;;;;2.58;2.38;;;;;;;;;;5060838;28;20021;-56
2022/08/20 13:10:05;;;;;;;2.58;2.13;;;;;;;;;;5051353;28;20155;-57
2022/08/20 13:12:30;;;;;;;2.35;1.90;;;;;;;;;;5052463;28;20021;-56
2022/08/20 13:14:56;;;;;;;2.05;1.80;;;;;;;;;;5070747;28;20489;-56
2022/08/20 13:17:21;;;;;;;1.98;1.73;;;;;;;;;;5071068;28;20025;-57
2022/08/20 13:19:47;;;;;;;3.08;2.08;;;;;;;;;;5057537;28;20056;-56
2022/08/20 13:22:13;;;;;;;2.67;2.20;;;;;;;;;;5051294;28;20424;-57
2022/08/20 13:24:39;;;;;;;2.92;2.05;;;;;;;;;;5066024;28;20120;-56
2022/08/20 13:27:04;;;;;;;1.90;1.70;;;;;;;;;;5059628;28;20595;-56
2022/08/20 13:29:30;;;;;;;2.28;1.60;;;;;;;;;;5058114;28;20428;-56
2022/08/20 13:31:55;;;;;;;2.55;1.65;;;;;;;;;;5066171;28;20440;-56
2022/08/20 13:34:20;;;;;;;1.67;1.40;;;;;;;;;;5067295;28;20036;-56
2022/08/20 13:36:46;;;;;;;2.17;1.50;;;;;;;;;;5053950;28;20061;-56
2022/08/20 13:39:11;;;;;;;1.73;1.60;;;;;;;;;;5062050;28;20490;-56
2022/08/20 13:41:36;;;;;;;2.75;1.67;;;;;;;;;;5055004;28;20520;-56
2022/08/20 13:44:02;;;;;;;3.28;1.73;;;;;;;;;;5063850;28;20032;-57
2022/08/20 13:46:28;;;;;;;2.33;1.83;;;;;;;;;;5074451;28;20124;-57
2022/08/20 13:48:53;;;;;;;2.78;1.50;;;;;;;;;;5074440;28;20474;-57
2022/08/20 13:51:19;;;;;;;3.95;1.50;;;;;;;;;;5059961;28;20032;-58
2022/08/20 13:53:44;;;;;;;2.25;1.48;;;;;;;;;;5055637;28;20139;-56
2022/08/20 13:56:10;;;;;;;1.95;1.75;;;;;;;;;;5069223;28;20023;-57
2022/08/20 13:58:35;;;;;;;2.85;1.75;;;;;;;;;;5062947;28;20499;-57
2022/08/20 14:01:01;;;;;;;2.28;1.77;;;;;;;;;;5061184;28;20114;-57
2022/08/20 14:03:26;;;;;;;4.82;2.20;;;;;;;;;;5053367;28;20020;-57
2022/08/20 14:05:52;;;;;;;2.63;2.33;;;;;;;;;;5056853;28;20025;-57
2022/08/20 14:08:21;;;;;;;2.53;2.10;;;;;;;;;;5066162;28;20032;-57
2022/08/20 14:10:49;;;;;;;2.10;1.90;;;;;;;;;;5054213;28;20108;-57
2022/08/20 14:13:17;;;;;;;3.47;2.15;;;;;;;;;;5068912;28;20497;-58
2022/08/20 14:15:44;;;;;;;4.47;2.70;;;;;;;;;;5054008;28;20067;-58
2022/08/20 14:18:09;;;;;;;6.93;2.50;;;;;;;;;;5061872;28;20025;-58
2022/08/20 14:20:35;;;;;;;2.55;2.35;;;;;;;;;;5073950;28;20103;-58
2022/08/20 14:23:01;;;;;;;2.80;2.00;;;;;;;;;;5072903;28;20036;-58
2022/08/20 14:25:28;;;;;;;2.85;2.20;;;;;;;;;;5073878;28;20020;-58
2022/08/20 14:27:55;;;;;;;2.25;2.00;;;;;;;;;;5065638;28;20020;-57
2022/08/20 14:30:25;;;;;;;4.15;2.83;;;;;;;;;;5053688;28;20875;-58
2022/08/20 14:32:51;;;;;;;3.03;2.45;;;;;;;;;;5068645;28;20028;-58
2022/08/20 14:35:17;;;;;;;2.72;2.15;;;;;;;;;;5073568;28;20152;-58
2022/08/20 14:37:46;;;;;;;3.00;1.80;;;;;;;;;;5066099;28;20041;-57
2022/08/20 14:40:15;;;;;;;1.70;1.60;;;;;;;;;;5064896;28;20032;-57
2022/08/20 14:42:42;;;;;;;3.20;1.50;;;;;;;;;;5056464;28;20509;-57
2022/08/20 14:45:10;;;;;;;2.20;1.63;;;;;;;;;;5068842;28;20398;-57
2022/08/20 14:47:41;;;;;;;1.50;1.40;;;;;;;;;;5061098;28;20482;-57
2022/08/20 14:50:19;;;;;;;1.73;1.55;;;;;;;;;;5073294;28;20489;-57
2022/08/20 14:52:45;;;;;;;3.10;1.67;;;;;;;;;;5054512;28;20100;-57